Rachel Carson — WDE6481 — position and weather

sailwx.info

Track history (hours):
 
Tides and Currents Weather Stations Pressure Air Temp Water Temp Dewpoint Dewpoint Depression Visibility Wind Speed Wind Dir Waves Ship Positions

Oceanographic research ship Rachel Carson (USA)

Owner: University of Maryland Center for Environmental Science Research Fleet Operations, Solomons, MD. More information available from US FCC via Universal Licensing System and Coast Guard Vessel Documentation Center.

Last reported at 2019-Oct-22 19:36 UTC. Time now 2019-Nov-11 22:33 UTC.
Position N 38°39' W 076°25'.
Warning: this ship's position is 20 days out of date.

Length 24 m; draft 1.5 m.

Type: Other ship. MMSI: 367380790.

Date/timePositionNaut miles runAvg speedWind from/ knotsBaromVisibWave heightAir tempDewpointWater temp
2019-Oct-22 19:36N 38°39' W 076°25'218.8
2019-Oct-22 19:30N 38°41' W 076°25'1119.5
2019-Oct-22 18:57N 38°51' W 076°24'9 1.3
2019-Oct-22 11:42N 39°01' W 076°24'0 0.0
2019-Oct-21 20:55N 39°01' W 076°24'1 1.8
2019-Oct-21 20:21N 39°00' W 076°23'2 2.8
2019-Oct-21 19:39N 39°00' W 076°21'0 0.5
2019-Oct-21 19:30N 39°00' W 076°21'713.8
2019-Oct-21 19:00N 38°54' W 076°25'611.5
2019-Oct-21 18:30N 38°49' W 076°28'3 6.3
2019-Oct-21 18:00N 38°49' W 076°24'1 1.9
2019-Oct-21 17:30N 38°49' W 076°23'11 7.9
2019-Oct-21 16:10N 38°39' W 076°24'1 5.4
2019-Oct-21 16:00N 38°39' W 076°25'4 5.9
2019-Oct-21 15:22N 38°39' W 076°30'  
2019-Oct-15 14:29N 37°60' W 076°18'3 5.3
2019-Oct-15 14:00N 38°01' W 076°21'  
Track history (hours):
 
Tides and Currents Weather Stations Pressure Air Temp Water Temp Dewpoint Dewpoint Depression Visibility Wind Speed Wind Dir Waves Ship Positions

Oceanographic research ship Rachel Carson (USA)

Owner: University of Maryland Center for Environmental Science Research Fleet Operations, Solomons, MD. More information available from US FCC via Universal Licensing System and Coast Guard Vessel Documentation Center.

Last reported at 2019-Oct-22 19:36 UTC. Time now 2019-Nov-11 22:33 UTC.
Position N 38°39' W 076°25'.
Warning: this ship's position is 20 days out of date.

Length 24 m; draft 1.5 m.

Type: Other ship. MMSI: 367380790.

Date/timePositionNaut miles runAvg speedWind from/ knotsBaromVisibWave heightAir tempDewpointWater temp
2019-Oct-22 19:36N 38°39' W 076°25'218.8
2019-Oct-22 19:30N 38°41' W 076°25'1119.5
2019-Oct-22 18:57N 38°51' W 076°24'9 1.3
2019-Oct-22 11:42N 39°01' W 076°24'0 0.0
2019-Oct-21 20:55N 39°01' W 076°24'1 1.8
2019-Oct-21 20:21N 39°00' W 076°23'2 2.8
2019-Oct-21 19:39N 39°00' W 076°21'0 0.5
2019-Oct-21 19:30N 39°00' W 076°21'713.8
2019-Oct-21 19:00N 38°54' W 076°25'611.5
2019-Oct-21 18:30N 38°49' W 076°28'3 6.3
2019-Oct-21 18:00N 38°49' W 076°24'1 1.9
2019-Oct-21 17:30N 38°49' W 076°23'11 7.9
2019-Oct-21 16:10N 38°39' W 076°24'1 5.4
2019-Oct-21 16:00N 38°39' W 076°25'4 5.9
2019-Oct-21 15:22N 38°39' W 076°30'  
2019-Oct-15 14:29N 37°60' W 076°18'3 5.3
2019-Oct-15 14:00N 38°01' W 076°21'  

Dump ship's entire track history